Date,TemperatureHighF,TemperatureAvgF,TemperatureLowF,DewpointHighF,DewpointAvgF,DewpointLowF,HumidityHigh,HumidityAvg,HumidityLow,PressureMaxIn,PressureMinIn,WindSpeedMaxMPH,WindSpeedAvgMPH,GustSpeedMaxMPH,PrecipitationSumIn
2013-1-1,51,45,40,39,35,32,73,68,58,30.27,30.19,16,4,17,0.00
2013-1-2,56,46,38,41,36,31,79,68,52,30.24,30.12,8,2,8,0.00
2013-1-3,55,46,38,43,37,31,79,72,62,30.26,30.14,8,2,10,0.00
2013-1-4,57,47,39,44,39,34,82,72,58,30.28,30.16,6,2,10,0.00
2013-1-5,56,49,43,49,43,37,86,80,74,30.25,30.06,7,2,9,0.10
2013-1-6,51,48,43,47,43,39,89,85,79,30.19,30.04,10,3,14,0.15
2013-1-7,58,48,40,49,42,36,91,82,68,30.25,30.14,5,1,6,0.00
2013-1-8,60,51,43,50,44,39,88,77,59,30.23,30.12,8,2,8,0.00
2013-1-9,53,48,44,48,43,38,88,82,76,30.14,29.99,11,2,12,0.03
2013-1-10,51,44,38,38,36,32,86,72,50,30.19,30.06,11,2,11,0.00
2013-1-11,52,43,36,42,36,30,81,75,62,30.26,30.12,9,2,10,0.00
2013-1-12,50,43,36,36,31,27,81,64,45,30.25,30.12,10,3,10,0.00
2013-1-13,49,40,34,31,27,24,72,60,40,30.26,30.16,7,2,10,0.00
2013-1-14,52,42,33,26,23,20,63,49,33,30.40,30.21,9,2,10,0.00
2013-1-15,57,44,36,34,28,24,67,55,40,30.47,30.38,9,2,9,0.00
2013-1-16,58,46,37,40,34,28,72,62,49,30.42,30.24,7,2,9,0.00
2013-1-17,63,49,38,43,36,30,78,62,46,30.26,30.14,5,1,5,0.00
2013-1-18,65,51,40,43,36,30,76,57,37,30.22,30.12,9,2,9,0.00
2013-1-19,63,51,40,43,36,30,72,57,46,30.24,30.14,8,2,8,0.00
2013-1-20,63,51,40,41,36,31,72,57,36,30.22,30.11,6,2,8,0.00
2013-1-21,64,51,40,44,37,30,76,60,42,30.18,30.06,10,2,10,0.00
2013-1-22,63,53,43,47,41,35,78,64,55,30.09,29.99,10,2,10,0.00
2013-1-23,58,54,50,49,45,41,82,72,62,30.08,29.92,15,3,16,0.03
2013-1-24,56,54,52,52,50,48,87,84,82,30.18,30.04,13,2,13,0.04
2013-1-25,65,58,53,58,53,50,91,84,75,30.18,30.03,6,1,8,0.01
2013-1-26,57,53,49,50,46,42,90,78,65,30.08,30.00,13,3,16,0.00
2013-1-27,55,48,41,42,39,36,85,72,52,30.17,30.06,10,2,10,0.00
2013-1-28,56,48,41,45,40,35,82,74,59,30.29,30.15,9,2,11,0.00
2013-1-29,59,49,43,46,42,38,87,77,59,30.35,30.26,10,2,10,0.00
2013-1-30,68,56,44,48,42,38,82,62,44,30.33,30.25,8,2,8,0.00
2013-1-31,65,53,43,49,43,36,78,67,55,30.29,30.16,7,2,7,0.00
2013-2-1,68,55,45,52,46,39,86,73,57,30.21,30.10,10,2,11,0.00
2013-2-2,59,52,48,52,46,42,86,79,74,30.28,30.20,5,1,6,0.00
2013-2-3,60,52,48,48,45,42,85,76,62,30.25,30.13,8,1,8,0.00
2013-2-4,57,49,44,51,44,39,89,84,78,30.18,30.06,5,1,6,0.00
2013-2-5,57,52,49,49,46,43,86,80,73,30.15,30.06,10,3,10,0.00
2013-2-6,59,51,44,46,43,39,85,76,58,30.19,30.12,11,2,11,0.00
2013-2-7,56,48,43,47,42,38,87,77,60,30.18,30.00,10,2,10,0.11
2013-2-8,53,47,43,44,40,36,88,78,66,30.01,29.92,10,2,11,0.02
2013-2-9,57,47,37,38,34,31,79,63,41,30.09,29.97,6,2,6,0.00
2013-2-10,60,48,38,42,36,30,74,62,47,30.12,30.01,8,2,8,0.00
2013-2-11,64,51,41,38,35,30,74,55,30,30.22,30.06,9,2,9,0.00
2013-2-12,61,50,41,45,38,32,72,64,51,30.35,30.22,8,2,8,0.00
2013-2-13,63,52,42,49,41,35,79,68,51,30.34,30.21,7,1,8,0.00
2013-2-14,69,55,42,46,42,36,85,61,41,30.24,30.14,9,2,10,0.00
2013-2-15,73,59,47,51,44,37,72,58,45,30.26,30.19,6,2,7,0.00
2013-2-16,69,57,48,52,45,39,75,65,53,30.22,30.05,6,2,6,0.00
2013-2-17,63,54,48,49,45,39,83,71,56,30.06,29.96,10,2,10,0.00
2013-2-18,53,49,45,44,41,38,83,74,64,30.04,29.97,11,3,11,0.00
2013-2-19,49,47,42,43,40,34,83,75,67,29.97,29.75,12,3,15,0.36
2013-2-20,58,47,37,44,38,32,83,71,54,30.06,29.82,8,2,9,0.01
2013-2-21,59,50,42,42,38,33,83,67,38,30.16,30.03,14,3,14,0.00
2013-2-22,62,50,41,45,40,34,79,69,44,30.26,30.16,10,2,12,0.00
2013-2-23,59,53,50,46,42,27,86,67,38,30.25,30.15,15,4,15,0.01
2013-2-24,63,52,42,38,32,26,59,46,27,30.26,30.16,11,2,13,0.00
2013-2-25,60,50,41,48,39,32,74,66,56,30.28,30.17,11,2,11,0.00
2013-2-26,65,52,41,44,38,34,81,61,32,30.21,30.13,9,3,9,0.00
2013-2-27,68,54,42,46,38,31,68,56,31,30.37,30.20,10,2,10,0.00
2013-2-28,66,56,46,53,47,40,83,73,63,30.46,30.36,12,2,13,0.00
2013-3-1,71,58,48,57,49,43,89,73,55,30.42,30.23,6,2,7,0.00
2013-3-2,71,61,53,56,50,46,79,69,55,30.24,30.05,8,2,9,0.00
2013-3-3,64,57,52,51,48,45,80,73,56,30.11,30.04,12,4,13,0.00
2013-3-4,59,52,48,48,45,41,81,75,63,30.15,30.06,11,2,16,0.00
2013-3-5,64,54,45,47,43,39,82,68,50,30.06,29.87,12,2,12,0.01
2013-3-6,59,54,47,46,43,39,80,67,53,30.07,29.87,9,3,10,0.06
2013-3-7,62,52,44,46,41,37,82,69,47,29.98,29.84,9,3,10,0.14
2013-3-8,58,52,46,48,45,42,84,76,65,30.07,29.81,16,4,16,0.05
2013-3-9,64,56,50,47,44,41,78,66,48,30.30,30.06,12,3,14,0.00
2013-3-10,70,56,44,48,42,37,78,61,38,30.34,30.24,9,2,9,0.00
2013-3-11,71,58,46,52,42,35,70,57,42,30.26,30.10,10,2,10,0.00
2013-3-12,72,58,47,56,48,40,87,70,54,30.16,30.06,7,1,8,0.00
2013-3-13,76,62,50,59,52,44,86,70,53,30.16,30.05,10,2,10,0.00
2013-3-14,72,61,52,57,51,46,85,71,55,30.16,30.08,8,2,8,0.00
2013-3-15,71,58,48,54,48,42,80,71,52,30.13,30.05,9,2,9,0.00
2013-3-16,68,57,50,56,49,45,87,74,49,30.11,30.03,10,2,10,0.00
2013-3-17,66,56,48,51,46,42,87,71,50,30.15,30.05,12,2,12,0.00
2013-3-18,67,56,46,51,45,39,80,67,49,30.13,30.02,10,2,12,0.00
2013-3-19,70,58,50,48,44,40,78,62,39,30.15,30.04,10,2,11,0.09
2013-3-20,67,59,54,56,52,48,86,79,62,30.13,30.06,10,3,10,0.03
2013-3-21,63,56,49,51,46,42,83,69,53,30.13,30.01,11,3,13,0.00
2013-3-22,67,55,44,43,39,21,75,57,18,30.10,30.02,12,3,12,0.00
2013-3-23,68,57,44,43,36,28,60,47,31,30.13,30.04,9,2,9,0.00
2013-3-24,70,56,45,49,43,36,75,61,43,30.08,29.97,9,2,10,0.00
2013-3-25,61,53,47,47,44,39,80,70,59,30.03,29.95,13,3,14,0.00
2013-3-26,68,57,51,50,46,43,77,67,50,30.01,29.93,12,3,12,0.00
2013-3-27,67,58,50,54,49,42,79,71,60,30.01,29.94,11,3,12,0.00
2013-3-28,74,62,57,58,53,50,86,73,53,30.08,29.99,12,2,12,0.00
2013-3-29,77,64,52,58,52,46,87,66,47,30.08,30.00,12,2,12,0.00
2013-3-30,72,63,57,56,53,50,81,70,54,30.06,29.96,7,2,8,0.01
2013-3-31,72,64,55,56,52,48,81,67,49,30.06,29.98,10,2,10,0.10
2013-4-1,68,61,56,55,52,47,85,72,59,30.16,30.04,12,3,12,0.03
2013-4-2,69,60,53,56,51,46,82,72,62,30.18,30.08,14,3,14,0.00
2013-4-3,78,61,51,59,51,46,86,70,43,30.15,29.98,10,2,10,0.00
2013-4-4,71,61,56,59,54,50,85,76,63,30.11,29.99,10,3,10,0.25
2013-4-5,66,61,57,55,52,50,86,75,62,30.18,30.11,11,3,11,0.02
2013-4-6,66,60,57,56,52,50,79,75,67,30.19,30.13,10,2,10,0.00
2013-4-7,65,59,56,55,51,48,83,75,65,30.17,29.86,12,3,15,0.07
2013-4-8,69,57,49,50,41,30,83,58,25,30.01,29.80,21,7,22,0.00
2013-4-9,76,64,52,49,38,30,72,41,19,30.08,29.99,18,6,18,0.00
2013-4-10,81,65,53,55,48,40,69,55,35,30.17,30.06,12,3,12,0.00
2013-4-11,70,60,54,52,48,46,77,66,47,30.09,29.86,13,3,13,0.00
2013-4-12,75,59,49,55,47,42,80,67,42,29.92,29.83,12,3,12,0.00
2013-4-13,65,57,51,51,46,43,77,67,54,29.92,29.86,12,4,13,0.00
2013-4-14,64,55,47,47,44,40,81,66,45,29.94,29.88,14,3,15,0.00
2013-4-15,61,54,50,48,42,37,78,65,49,29.95,29.86,16,5,26,0.00
2013-4-16,65,54,43,45,39,34,72,57,35,30.13,29.95,14,4,15,0.00
2013-4-17,70,61,52,44,34,25,63,37,19,30.26,30.13,16,6,21,0.00
2013-4-18,76,62,48,44,39,33,62,44,29,30.26,30.18,12,3,13,0.00
2013-4-19,80,65,52,52,45,38,64,50,33,30.22,30.08,10,2,13,0.00
2013-4-20,76,64,53,54,48,44,76,58,38,30.10,29.98,13,3,13,0.00
2013-4-21,85,68,53,54,47,42,72,50,28,30.03,29.92,11,2,11,0.00
2013-4-22,87,73,59,54,47,42,66,42,25,29.96,29.84,12,3,12,0.00
2013-4-23,81,68,56,51,42,29,61,42,17,29.93,29.86,12,3,12,0.00
2013-4-24,70,60,51,53,48,42,76,64,49,29.95,29.83,11,3,13,0.00
2013-4-25,68,60,55,53,50,47,79,69,55,30.14,29.94,14,4,16,0.00
2013-4-26,72,60,54,54,50,46,77,68,52,30.22,30.13,11,4,12,0.00
2013-4-27,76,61,52,57,50,46,81,69,48,30.22,30.08,8,3,10,0.00
2013-4-28,83,66,51,60,52,44,84,63,41,30.09,29.88,8,2,10,0.00
2013-4-29,87,71,60,57,52,50,73,53,29,29.89,29.77,14,3,14,0.00
2013-4-30,78,67,55,56,50,45,78,56,35,29.85,29.79,13,3,13,0.00
2013-5-1,86,71,56,50,38,26,52,33,15,30.09,29.84,10,2,10,0.00
2013-5-2,93,76,59,48,38,24,53,30,13,30.13,30.08,12,3,12,0.00
2013-5-3,90,75,62,45,38,32,37,27,15,30.09,29.80,10,2,10,0.00
2013-5-4,87,72,61,54,44,35,51,38,21,29.80,29.56,12,3,12,0.00
2013-5-5,76,66,58,51,48,44,64,54,40,29.81,29.62,8,2,10,0.00
2013-5-6,73,66,58,53,50,47,67,57,48,29.96,29.81,8,2,8,0.00
2013-5-7,74,66,60,54,51,48,71,58,43,30.06,29.95,11,3,11,0.00
2013-5-8,67,61,58,54,51,49,76,70,60,30.16,30.05,12,4,13,0.00
2013-5-9,66,59,55,52,50,48,79,72,59,30.19,30.10,11,4,14,0.00
2013-5-10,70,60,54,56,52,49,85,75,59,30.20,30.12,12,4,12,0.00
2013-5-11,87,68,55,61,54,49,84,64,37,30.16,30.04,9,2,9,0.00
2013-5-12,79,68,56,61,54,48,77,62,46,30.14,30.05,10,2,10,0.00
2013-5-13,77,65,55,60,53,47,81,66,53,30.11,29.96,8,2,9,0.00
2013-5-14,74,63,56,57,51,46,78,64,50,30.04,29.94,10,3,11,0.00
2013-5-15,68,61,54,51,48,45,73,63,44,30.08,30.01,10,4,12,0.00
2013-5-16,69,61,58,57,52,50,84,73,58,30.05,29.99,11,4,14,0.01
2013-5-17,67,61,56,52,48,45,75,65,50,30.10,29.98,13,4,16,0.00
2013-5-18,72,62,55,54,50,45,76,64,49,30.13,30.08,10,3,12,0.00
2013-5-19,79,66,53,56,50,46,79,58,35,30.12,29.98,14,3,14,0.00
2013-5-20,88,70,56,54,47,41,65,48,24,29.99,29.93,12,3,12,0.00
2013-5-21,67,61,56,52,48,44,72,63,51,30.02,29.93,14,5,17,0.00
2013-5-22,66,58,48,45,40,32,68,53,31,30.01,29.93,13,4,17,0.00
2013-5-23,68,59,53,47,45,44,71,60,44,30.02,29.92,11,4,13,0.00
2013-5-24,69,58,49,48,44,40,77,61,44,30.01,29.96,17,4,17,0.00
2013-5-25,65,58,52,50,47,43,74,65,54,30.07,29.98,13,4,13,0.00
2013-5-26,69,61,56,55,52,49,83,73,59,30.15,30.06,15,5,15,0.00
2013-5-27,65,61,57,56,53,50,81,76,70,30.14,29.99,9,3,10,0.02
2013-5-28,70,64,59,59,55,52,87,75,55,30.01,29.93,14,4,14,0.01
2013-5-29,69,63,58,56,53,48,76,69,59,29.98,29.93,11,4,12,0.00
2013-5-30,73,62,53,53,49,46,80,63,42,30.00,29.93,11,3,11,0.00
2013-5-31,84,68,53,54,50,44,74,54,31,30.01,29.91,14,3,14,0.00
2013-6-1,90,72,56,58,51,46,72,51,25,29.94,29.77,11,3,11,0.00
2013-6-2,79,66,56,56,52,48,78,61,43,29.80,29.68,11,4,12,0.00
2013-6-3,77,66,56,57,52,48,75,61,47,29.85,29.72,14,4,14,0.00
2013-6-4,73,64,57,57,53,50,81,68,54,29.96,29.84,13,5,13,0.00
2013-6-5,73,63,57,57,52,50,80,69,53,29.99,29.91,12,5,15,0.00
2013-6-6,79,65,57,58,54,50,81,68,47,29.95,29.85,10,4,10,0.00
2013-6-7,92,73,57,64,58,50,82,62,38,29.89,29.72,9,2,9,0.00
2013-6-8,90,76,64,64,58,54,72,54,36,29.80,29.69,12,3,16,0.00
2013-6-9,74,67,62,59,56,53,77,67,57,29.87,29.79,17,5,17,0.00
2013-6-10,78,67,61,57,54,51,73,63,47,29.94,29.82,12,4,12,0.00
2013-6-11,76,66,59,58,54,50,75,66,52,29.98,29.90,10,3,10,0.00
2013-6-12,75,64,56,54,50,47,76,61,42,30.03,29.90,14,4,14,0.00
2013-6-13,78,65,54,54,50,47,79,60,42,30.08,30.00,12,3,12,0.00
2013-6-14,85,70,55,56,49,44,70,51,26,30.00,29.83,12,3,12,0.00
2013-6-15,70,62,55,54,50,46,79,66,54,30.02,29.84,15,3,16,0.00
2013-6-16,77,65,53,57,52,45,79,63,47,30.11,30.00,10,2,12,0.00
2013-6-17,71,64,58,58,54,48,77,69,59,30.11,30.05,14,4,14,0.00
2013-6-18,68,63,59,54,52,51,79,70,56,30.05,30.01,18,6,18,0.00
2013-6-19,73,65,57,54,52,49,79,64,47,30.05,30.01,11,3,14,0.00
2013-6-20,76,64,54,54,50,46,79,61,41,30.02,29.95,11,3,14,0.00
2013-6-21,79,66,55,55,51,46,74,60,38,29.99,29.93,12,3,13,0.00
2013-6-22,83,68,55,56,52,47,73,58,31,29.94,29.88,15,3,15,0.00
2013-6-23,71,65,60,61,57,54,83,76,69,29.90,29.81,9,4,9,0.00
2013-6-24,70,66,61,62,59,56,85,80,74,29.90,29.78,6,2,8,0.03
2013-6-25,77,70,65,66,62,59,85,77,66,29.98,29.88,9,2,10,0.05
2013-6-26,84,74,67,67,63,60,83,69,51,30.05,29.96,12,3,13,0.00
2013-6-27,86,76,63,66,61,56,82,63,48,30.06,30.01,10,3,10,0.00
2013-6-28,95,80,64,67,61,55,74,54,32,30.03,29.90,13,2,13,0.00
2013-6-29,97,82,67,65,60,53,65,48,29,29.93,29.81,9,2,9,0.01
2013-6-30,91,77,66,64,59,54,71,54,38,29.85,29.77,8,2,8,0.00
2013-7-1,93,78,64,67,59,55,74,54,33,29.85,29.80,10,2,10,0.00
2013-7-2,94,78,68,67,60,55,69,55,36,29.92,29.81,13,3,13,0.00
2013-7-3,95,78,64,66,60,55,74,55,33,29.91,29.76,9,3,9,0.00
2013-7-4,94,81,71,66,60,51,64,50,34,29.78,29.69,9,3,10,0.00
2013-7-5,72,65,60,56,53,51,74,65,51,29.81,29.73,13,6,14,0.00
2013-7-6,77,67,60,58,54,51,74,63,50,29.80,29.72,13,4,13,0.00
2013-7-7,81,68,57,59,54,49,79,63,46,29.85,29.77,11,3,11,0.00
2013-7-8,82,70,60,60,55,51,75,60,45,29.97,29.85,10,3,10,0.00
2013-7-9,90,73,60,63,57,51,81,59,34,30.02,29.92,11,3,11,0.00
2013-7-10,84,68,58,61,55,51,80,64,44,29.98,29.89,12,4,12,0.00
2013-7-11,77,65,59,58,54,51,81,68,52,29.95,29.88,12,4,12,0.00
2013-7-12,79,69,59,59,54,50,79,61,39,29.93,29.87,12,3,12,0.00
2013-7-13,85,71,57,59,53,48,76,56,33,29.96,29.89,8,2,11,0.00
2013-7-14,79,67,57,58,53,48,79,62,47,29.99,29.89,11,4,11,0.00
2013-7-15,74,64,58,57,54,51,79,70,55,29.92,29.82,13,5,14,0.00
2013-7-16,72,65,60,56,54,52,77,69,56,30.04,29.86,14,5,14,0.00
2013-7-17,75,66,60,59,55,53,78,70,56,30.09,30.02,10,4,10,0.00
2013-7-18,85,68,58,60,55,52,83,66,38,30.07,29.93,9,4,11,0.00
2013-7-19,84,68,58,61,55,50,81,65,43,29.96,29.82,12,3,12,0.00
2013-7-20,84,68,59,63,56,52,82,67,44,29.87,29.73,11,4,11,0.00
2013-7-21,82,69,59,60,55,51,79,63,46,29.87,29.76,11,3,11,0.00
2013-7-22,79,69,60,62,57,52,80,66,54,29.95,29.87,9,3,10,0.00
2013-7-23,83,73,64,63,57,55,73,60,43,29.99,29.94,12,3,12,0.00
2013-7-24,88,74,63,62,56,47,74,55,26,29.98,29.90,10,3,10,0.00
2013-7-25,84,72,62,59,55,52,74,57,35,30.03,29.93,11,4,11,0.00
2013-7-26,82,69,60,61,56,51,79,64,47,30.09,30.00,12,4,14,0.00
2013-7-27,78,68,60,61,57,53,83,69,52,30.03,29.85,11,4,11,0.00
2013-7-28,77,67,60,60,56,53,80,68,51,29.88,29.80,13,4,13,0.00
2013-7-29,75,66,58,58,54,51,78,67,52,30.00,29.84,14,4,14,0.00
2013-7-30,80,67,60,60,55,52,78,67,49,30.09,30.01,12,4,14,0.00
2013-7-31,76,66,59,59,55,52,81,68,49,30.08,30.03,16,4,16,0.00
2013-8-1,73,65,58,56,53,50,78,66,53,30.08,29.98,16,4,16,0.00
2013-8-2,78,65,55,57,53,48,83,67,48,29.98,29.91,12,4,12,0.00
2013-8-3,78,66,57,59,54,50,81,68,50,29.98,29.89,10,3,11,0.00
2013-8-4,75,64,58,59,55,52,82,73,54,30.01,29.94,12,4,13,0.00
2013-8-5,74,64,59,60,55,52,81,72,57,30.02,29.94,13,4,13,0.00
2013-8-6,73,64,59,58,55,53,82,74,57,30.04,29.97,15,4,15,0.00
2013-8-7,73,66,61,58,56,54,80,71,57,30.10,30.03,14,5,14,0.00
2013-8-8,74,66,61,60,56,54,79,72,58,30.04,29.94,16,5,16,0.00
2013-8-9,73,64,59,59,55,52,83,73,60,30.00,29.93,12,4,12,0.00
2013-8-10,75,65,60,60,57,54,83,74,57,30.06,29.99,12,4,13,0.00
2013-8-11,77,66,61,60,57,54,83,73,54,30.03,29.95,9,3,9,0.00
2013-8-12,81,68,57,61,55,51,83,64,40,29.99,29.93,12,3,12,0.00
2013-8-13,87,70,56,62,55,49,82,62,34,29.99,29.90,11,2,11,0.00
2013-8-14,79,68,57,62,56,49,82,66,47,29.99,29.93,9,3,10,0.00
2013-8-15,80,72,65,66,63,60,83,73,62,29.97,29.92,11,4,12,0.00
2013-8-16,84,73,65,66,60,56,88,67,40,29.99,29.94,12,3,12,0.00
2013-8-17,77,68,62,62,58,53,80,70,58,29.99,29.88,9,2,11,0.00
2013-8-18,93,75,59,67,60,53,84,63,39,29.89,29.76,8,2,9,0.00
2013-8-19,89,77,68,66,60,56,74,56,39,29.90,29.78,12,3,12,0.00
2013-8-20,84,72,64,63,58,54,77,61,45,29.88,29.80,13,4,13,0.00
2013-8-21,78,68,62,60,56,53,77,67,51,29.93,29.84,12,4,12,0.00
2013-8-22,75,66,61,59,56,53,79,70,55,29.97,29.89,12,4,13,0.00
2013-8-23,73,66,61,59,56,54,79,71,60,29.94,29.83,10,4,12,0.00
2013-8-24,76,68,60,61,57,53,82,70,57,29.91,29.85,14,4,14,0.00
2013-8-25,81,70,66,65,61,58,85,73,57,29.94,29.88,17,4,17,0.00
2013-8-26,76,69,64,62,58,55,82,70,54,30.00,29.91,10,4,12,0.00
2013-8-27,81,68,57,60,56,50,82,68,46,29.92,29.83,14,3,14,0.00
2013-8-28,80,71,65,64,61,58,80,72,56,29.95,29.86,13,4,14,0.00
2013-8-29,81,71,65,66,62,60,85,74,58,30.05,29.95,11,3,12,0.00
2013-8-30,86,74,64,66,61,57,86,68,45,30.04,29.93,10,3,13,0.00
2013-8-31,79,70,61,61,57,53,81,66,47,29.98,29.90,14,4,14,0.00
2013-9-1,82,70,63,62,59,56,78,68,44,29.95,29.88,14,3,14,0.00
2013-9-2,79,71,67,65,62,60,81,74,56,29.96,29.89,12,3,13,0.00
2013-9-3,77,70,64,61,59,55,81,69,47,30.01,29.93,14,4,14,0.00
2013-9-4,77,70,65,61,59,57,78,70,55,30.04,29.96,13,4,13,0.00
2013-9-5,76,69,64,61,59,56,79,70,56,30.02,29.96,12,4,15,0.00
2013-9-6,88,72,58,63,56,51,78,59,37,29.99,29.81,11,3,11,0.00
2013-9-7,93,78,66,59,53,47,53,42,25,29.86,29.79,11,3,12,0.00
2013-9-8,89,75,63,65,58,52,74,56,38,29.86,29.75,10,2,10,0.00
2013-9-9,90,75,62,64,57,52,73,56,31,29.80,29.70,8,2,10,0.00
2013-9-10,79,70,63,62,58,54,80,67,53,29.88,29.73,14,4,14,0.00
2013-9-11,75,68,62,60,58,54,77,70,59,29.98,29.88,15,3,15,0.00
2013-9-12,77,68,64,63,60,58,80,74,60,29.97,29.89,13,4,14,0.00
2013-9-13,76,66,62,62,58,55,82,74,59,29.92,29.79,12,4,12,0.00
2013-9-14,67,63,60,59,56,55,84,79,73,29.84,29.76,13,4,13,0.00
2013-9-15,77,67,60,61,58,54,81,73,56,29.87,29.80,12,4,12,0.00
2013-9-16,79,69,64,63,59,56,83,72,55,29.89,29.82,11,4,11,0.00
2013-9-17,72,66,62,58,56,53,79,71,59,29.89,29.84,14,4,14,0.00
2013-9-18,80,67,56,59,53,48,80,63,38,29.90,29.82,12,3,13,0.00
2013-9-19,87,69,56,56,50,44,66,52,29,29.85,29.74,12,2,12,0.00
2013-9-20,74,66,58,62,56,48,80,70,62,29.87,29.77,9,3,10,0.00
2013-9-21,70,66,63,61,58,56,82,74,65,29.90,29.80,10,3,10,0.66
2013-9-22,72,65,58,58,55,53,84,72,54,30.01,29.89,12,2,12,0.00
2013-9-23,79,67,57,62,57,52,83,71,48,30.01,29.92,11,3,12,0.00
2013-9-24,73,65,59,59,56,52,83,72,59,30.00,29.92,14,3,14,0.00
2013-9-25,70,62,54,52,50,47,81,67,50,29.93,29.82,14,3,14,0.00
2013-9-26,73,62,52,51,46,43,74,58,37,29.98,29.82,17,3,17,0.00
2013-9-27,76,64,52,49,44,40,69,51,30,30.08,29.97,11,3,11,0.00
2013-9-28,82,67,56,56,44,38,69,46,23,30.09,29.99,14,3,14,0.00
2013-9-29,76,67,59,60,56,52,81,69,55,30.10,30.04,12,3,12,0.00
2013-9-30,75,68,62,62,58,55,82,73,62,30.08,29.96,10,2,10,0.00
2013-10-1,72,65,59,55,52,49,73,63,48,30.02,29.92,8,2,8,0.00
2013-10-2,74,63,55,56,50,46,75,63,46,30.01,29.91,12,2,12,0.00
2013-10-3,73,63,51,49,42,31,71,50,24,30.06,29.93,17,4,17,0.00
2013-10-4,79,71,61,38,33,30,32,26,18,30.08,29.94,13,4,13,0.00
2013-10-5,86,73,60,38,33,27,36,24,16,30.18,30.08,8,3,10,0.00
2013-10-6,85,71,58,47,36,31,41,29,18,30.11,29.99,9,3,9,0.00
2013-10-7,81,69,60,49,39,32,54,34,18,29.99,29.88,11,2,11,0.00
2013-10-8,75,62,54,53,46,40,67,55,35,29.90,29.72,10,3,12,0.00
2013-10-9,68,60,53,50,46,42,76,61,46,29.75,29.62,9,2,9,0.00
2013-10-10,71,61,53,52,46,41,66,59,47,30.01,29.75,11,2,11,0.00
2013-10-11,68,58,52,54,48,44,79,69,57,30.08,29.98,11,2,11,0.00
2013-10-12,70,57,48,53,47,41,85,70,52,30.00,29.91,12,2,12,0.00
2013-10-13,72,60,52,53,47,42,82,64,38,30.06,29.92,11,3,11,0.00
2013-10-14,77,64,52,50,43,38,68,48,29,30.10,29.98,8,2,8,0.00
2013-10-15,80,67,54,43,38,36,54,37,23,30.03,29.93,9,2,9,0.00
2013-10-16,81,68,56,46,38,34,46,35,23,30.07,29.99,8,2,8,0.00
2013-10-17,81,67,57,46,38,34,46,35,22,30.07,29.95,9,2,9,0.00
2013-10-18,78,64,52,52,43,33,61,47,34,30.05,29.97,7,1,7,0.00
2013-10-19,78,64,52,55,48,40,70,57,41,30.07,29.98,7,1,8,0.00
2013-10-20,74,61,50,57,49,42,81,66,53,30.02,29.90,6,1,6,0.00
2013-10-21,71,59,52,56,50,44,84,72,57,30.00,29.90,6,1,6,0.00
2013-10-22,72,59,50,57,50,43,87,73,57,30.01,29.91,7,1,7,0.00
2013-10-23,66,56,52,56,50,45,88,80,67,29.97,29.89,8,2,8,0.00
2013-10-24,62,56,54,52,50,46,84,79,70,30.09,29.96,7,2,8,0.00
2013-10-25,68,58,51,55,50,45,84,75,62,30.15,30.07,8,2,8,0.00
2013-10-26,74,61,50,59,51,44,80,70,53,30.13,30.00,6,1,7,0.00
2013-10-27,61,56,51,52,48,44,85,76,67,30.02,29.70,17,4,17,0.00
2013-10-28,63,57,52,50,48,46,82,72,57,29.85,29.66,13,3,13,0.00
2013-10-29,63,58,54,50,48,45,78,70,59,30.04,29.85,8,2,9,0.00
2013-10-30,66,57,48,52,46,42,82,70,54,30.14,30.04,8,2,12,0.00
2013-10-31,71,59,49,51,46,42,78,62,44,30.16,30.05,8,2,10,0.00
2013-11-1,75,62,51,51,45,40,68,55,42,30.12,30.00,6,2,6,0.00
2013-11-2,68,59,52,53,46,40,74,63,54,30.01,29.93,8,2,8,0.00
2013-11-3,63,55,46,47,41,36,74,60,37,30.04,29.91,10,2,11,0.00
2013-11-4,65,55,45,43,36,32,61,50,34,30.05,29.90,10,2,12,0.00
2013-11-5,71,58,47,43,36,31,56,45,32,30.21,30.05,7,2,9,0.00
2013-11-6,72,62,51,44,38,34,53,42,33,30.25,30.14,10,2,10,0.00
2013-11-7,72,62,55,47,41,36,63,48,34,30.16,30.06,8,2,9,0.00
2013-11-8,70,58,50,54,47,41,82,67,48,30.08,29.96,9,1,9,0.00
2013-11-9,71,58,49,53,47,42,79,66,50,30.03,29.95,5,1,6,0.00
2013-11-10,66,56,49,53,47,42,82,71,59,30.11,30.02,7,1,8,0.00
2013-11-11,66,58,51,55,50,43,82,74,65,30.15,30.06,8,1,8,0.00
2013-11-12,70,62,56,54,50,45,77,65,50,30.25,30.13,10,2,12,0.00
2013-11-13,73,60,52,55,49,43,75,67,46,30.24,30.10,6,2,7,0.00
2013-11-14,64,56,52,55,50,45,86,80,73,30.11,29.88,8,2,10,0.00
2013-11-15,63,54,48,51,46,39,86,73,47,29.88,29.73,10,2,10,0.00
2013-11-16,61,54,46,51,45,38,82,74,57,29.92,29.77,9,2,10,0.00
2013-11-17,62,56,51,50,47,43,84,73,62,30.08,29.92,7,1,7,0.00
2013-11-18,60,53,47,48,45,42,84,75,64,30.13,30.06,9,2,9,0.00
2013-11-19,64,58,52,55,50,45,86,77,69,30.09,29.94,4,1,5,0.25
2013-11-20,62,58,55,58,55,51,89,88,84,29.94,29.83,10,2,10,0.81
2013-11-21,62,56,52,51,40,28,89,60,31,29.96,29.88,16,3,16,0.05
2013-11-22,69,58,48,35,28,22,47,34,18,30.02,29.88,13,3,14,0.00
2013-11-23,64,55,49,41,37,32,63,51,40,30.09,29.94,12,3,15,0.00
2013-11-24,64,54,46,45,40,37,73,61,47,30.24,30.08,6,2,8,0.00
2013-11-25,65,54,46,49,42,37,75,65,55,30.32,30.23,10,3,10,0.00
2013-11-26,64,56,49,49,44,40,75,65,55,30.24,30.01,11,3,14,0.00
2013-11-27,67,58,50,52,46,42,75,66,53,30.01,29.82,12,3,12,0.00
2013-11-28,67,57,50,50,45,42,76,64,48,30.07,29.85,6,1,6,0.00
2013-11-29,68,57,49,50,44,40,74,62,50,30.20,30.06,8,2,8,0.00
2013-11-30,64,55,48,51,44,39,73,67,59,30.25,30.17,6,2,6,0.00
2013-12-1,68,56,48,52,45,40,78,66,52,30.33,30.20,8,2,8,0.00
2013-12-2,62,55,47,52,47,40,82,75,65,30.22,29.96,10,2,10,0.00
2013-12-3,56,54,52,52,42,35,86,67,49,29.96,29.83,11,4,14,0.01
2013-12-4,53,45,37,29,24,18,64,46,35,30.06,29.94,11,3,11,0.00
2013-12-5,51,42,33,25,20,17,52,42,33,30.16,30.06,6,3,8,0.00
2013-12-6,52,44,36,44,32,22,83,61,50,30.18,29.91,7,2,9,0.43
2013-12-7,49,45,38,44,34,28,84,66,48,30.23,29.91,14,3,15,0.08
2013-12-8,46,39,36,29,26,22,73,58,44,30.30,30.20,13,4,16,0.00
2013-12-9,50,41,34,27,23,17,60,49,38,30.39,30.29,10,3,10,0.00
2013-12-10,53,43,36,33,28,25,72,56,41,30.38,30.19,10,3,11,0.00
2013-12-11,55,45,36,35,30,26,69,56,40,30.23,30.16,11,3,11,0.00
2013-12-12,59,47,38,40,34,28,69,60,48,30.26,30.15,7,2,7,0.00
2013-12-13,56,47,39,45,36,31,81,68,57,30.32,30.21,7,2,9,0.00
2013-12-14,59,48,39,41,35,31,74,62,48,30.38,30.29,7,2,7,0.00
2013-12-15,61,49,40,42,36,32,76,62,49,30.34,30.22,6,1,8,0.00
2013-12-16,64,52,42,43,37,33,74,58,45,30.23,30.10,5,1,5,0.00
2013-12-17,62,54,47,45,39,35,65,57,51,30.16,30.01,10,2,10,0.00
2013-12-18,60,53,48,47,42,37,78,68,58,30.01,29.78,10,2,12,0.00
2013-12-19,58,50,45,46,38,26,77,64,43,29.92,29.71,12,2,12,0.00
2013-12-20,58,49,41,28,25,21,49,39,26,30.00,29.90,8,2,8,0.00
2013-12-21,59,50,41,48,38,27,75,64,45,30.07,29.95,8,2,8,0.00
2013-12-22,65,52,41,45,39,35,81,63,40,30.27,30.06,5,1,6,0.00
2013-12-23,63,52,44,45,39,35,73,61,51,30.37,30.26,6,2,8,0.00
2013-12-24,65,54,44,46,39,35,74,60,43,30.32,30.19,6,2,7,0.00
2013-12-25,64,53,43,45,38,33,72,59,49,30.28,30.18,6,2,6,0.00
2013-12-26,67,53,44,46,39,35,74,60,47,30.24,30.14,7,2,7,0.00
2013-12-27,60,52,45,45,39,34,68,61,54,30.22,30.10,10,2,14,0.00
2013-12-28,62,51,41,44,36,31,77,59,40,30.14,30.01,9,2,10,0.00
2013-12-29,65,54,45,34,30,25,57,40,29,30.16,30.06,9,2,11,0.00
2013-12-30,61,52,43,42,35,30,62,53,46,30.25,30.15,7,2,7,0.00
2013-12-31,60,50,42,46,37,31,68,62,58,30.26,30.13,7,1,7,0.00
2014-1-1,61,50,40,43,36,30,67,58,47,30.21,30.11,6,1,6,0.00
2014-1-2,64,53,43,42,36,31,65,54,41,30.16,30.03,5,2,5,0.00